createdAt,value
2023-02-22T00:00:10.109Z,101352.75
2023-02-22T00:06:36.908Z,101344.25
2023-02-22T00:09:39.451Z,101344.66
2023-02-22T00:12:42.101Z,101339.91
2023-02-22T00:15:45.774Z,101340.16
2023-02-22T00:18:47.275Z,101339.72
2023-02-22T00:21:53.730Z,101338.66
2023-02-22T00:24:56.864Z,101345.31
2023-02-22T00:27:59.461Z,101347.53
2023-02-22T00:31:02.666Z,101337.38
2023-02-22T00:34:03.961Z,101331.44
2023-02-22T00:37:06.507Z,101339.56
2023-02-22T00:40:10.181Z,101331.00
2023-02-22T00:43:12.849Z,101336.03
2023-02-22T00:46:15.112Z,101322.69
2023-02-22T00:49:18.003Z,101332.19
2023-02-22T00:52:20.603Z,101327.63
2023-02-22T00:55:24.615Z,101331.31
2023-02-22T00:58:27.269Z,101329.69
2023-02-22T01:01:29.962Z,101333.19
2023-02-22T01:04:32.670Z,101331.63
2023-02-22T01:07:35.661Z,101339.34
2023-02-22T01:10:38.496Z,101337.41
2023-02-22T01:13:41.033Z,101334.53
2023-02-22T01:16:43.578Z,101332.59
2023-02-22T01:19:46.396Z,101331.25
2023-02-22T01:22:50.618Z,101337.59
2023-02-22T01:25:51.871Z,101324.69
2023-02-22T01:28:54.533Z,101322.75
2023-02-22T01:31:58.199Z,101317.66
2023-02-22T01:34:59.509Z,101317.59
2023-02-22T01:38:02.339Z,101316.72
2023-02-22T01:41:04.859Z,101318.13
2023-02-22T01:47:48.335Z,101316.22
2023-02-22T01:50:53.721Z,101307.53
2023-02-22T01:54:00.246Z,101313.13
2023-02-22T01:57:07.597Z,101306.06
2023-02-22T02:00:12.123Z,101308.19
2023-02-22T02:03:20.076Z,101306.53
2023-02-22T02:06:21.478Z,101296.75
2023-02-22T02:09:30.730Z,101302.66
2023-02-22T02:12:36.409Z,101301.16
2023-02-22T02:15:38.003Z,101304.03
2023-02-22T02:18:41.674Z,101306.03
2023-02-22T02:22:21.699Z,101308.69
2023-02-22T02:25:52.205Z,101300.56
2023-02-22T02:29:10.714Z,101294.38
2023-02-22T02:32:31.770Z,101290.06
2023-02-22T02:35:48.542Z,101294.28
2023-02-22T02:38:57.509Z,101291.63
2023-02-22T02:45:30.280Z,101293.63
2023-02-22T02:48:34.433Z,101289.06
2023-02-22T02:51:43.017Z,101290.03
2023-02-22T02:54:46.509Z,101287.19
2023-02-22T03:01:08.759Z,101285.78
2023-02-22T03:04:23.980Z,101284.47
2023-02-22T03:07:46.376Z,101287.75
2023-02-22T03:10:57.938Z,101291.56
2023-02-22T03:14:09.527Z,101291.25
2023-02-22T03:17:18.704Z,101286.25
2023-02-22T03:23:58.777Z,101290.19
2023-02-22T03:27:08.460Z,101285.13
2023-02-22T03:33:41.102Z,101279.84
2023-02-22T03:36:48.419Z,101290.94
2023-02-22T03:39:53.525Z,101288.81
2023-02-22T03:43:00.177Z,101287.06
2023-02-22T03:46:04.592Z,101281.94
2023-02-22T03:49:11.150Z,101299.50
2023-02-22T03:52:14.558Z,101297.41
2023-02-22T03:55:17.254Z,101288.34
2023-02-22T03:58:22.899Z,101287.22
2023-02-22T04:01:25.605Z,101289.56
2023-02-22T04:04:27.007Z,101287.06
2023-02-22T04:07:30.265Z,101286.06
2023-02-22T04:10:32.720Z,101291.53
2023-02-22T04:13:35.279Z,101295.56
2023-02-22T04:16:37.850Z,101285.31
2023-02-22T04:19:39.161Z,101292.78
2023-02-22T04:22:42.593Z,101291.16
2023-02-22T04:25:43.965Z,101282.22
2023-02-22T04:28:46.479Z,101291.28
2023-02-22T04:31:47.765Z,101286.03
2023-02-22T04:34:50.477Z,101286.63
2023-02-22T04:37:53.702Z,101274.84
2023-02-22T04:40:55.271Z,101280.41
2023-02-22T04:43:56.623Z,101287.69
2023-02-22T04:46:57.918Z,101288.28
2023-02-22T04:49:59.618Z,101289.97
2023-02-22T04:53:01.876Z,101286.66
2023-02-22T04:56:03.206Z,101283.69
2023-02-22T04:59:05.738Z,101282.34
2023-02-22T05:02:08.340Z,101285.59
2023-02-22T05:05:10.388Z,101284.34
2023-02-22T05:08:12.368Z,101285.69
2023-02-22T05:11:13.922Z,101279.09
2023-02-22T05:14:16.638Z,101277.13
2023-02-22T05:17:18.047Z,101264.59
2023-02-22T05:20:27.267Z,101264.91
2023-02-22T05:23:30.477Z,101266.94
2023-02-22T05:26:31.781Z,101274.41
2023-02-22T05:29:33.228Z,101270.13
2023-02-22T05:32:34.784Z,101276.91
2023-02-22T05:38:58.354Z,101269.00
2023-02-22T05:41:59.630Z,101272.34
2023-02-22T05:45:00.992Z,101281.63
2023-02-22T05:48:02.983Z,101280.31
2023-02-22T05:51:06.126Z,101276.25
2023-02-22T05:54:09.630Z,101283.78
2023-02-22T05:57:10.907Z,101278.28
2023-02-22T06:00:17.681Z,101286.00
2023-02-22T06:03:19.036Z,101285.19
2023-02-22T06:06:22.392Z,101283.06
2023-02-22T06:09:25.764Z,101291.66
2023-02-22T06:12:27.084Z,101291.88
2023-02-22T06:15:30.312Z,101293.97
2023-02-22T06:18:31.578Z,101296.06
2023-02-22T06:21:34.356Z,101297.72
2023-02-22T06:24:38.890Z,101301.22
2023-02-22T06:27:41.498Z,101300.41
2023-02-22T06:30:43.052Z,101307.94
2023-02-22T06:33:44.401Z,101301.66
2023-02-22T06:36:48.449Z,101309.38
2023-02-22T06:39:50.491Z,101309.16
2023-02-22T06:42:54.143Z,101309.31
2023-02-22T06:45:56.223Z,101319.59
2023-02-22T06:48:58.756Z,101316.19
2023-02-22T06:52:01.327Z,101311.78
2023-02-22T06:55:03.502Z,101321.84
2023-02-22T06:58:05.033Z,101320.94
2023-02-22T07:01:07.092Z,101318.13
2023-02-22T07:04:08.516Z,101318.91
2023-02-22T07:07:11.379Z,101321.19
2023-02-22T07:10:19.368Z,101334.81
2023-02-22T07:13:21.918Z,101323.44
2023-02-22T07:16:24.553Z,101328.22
2023-02-22T07:19:25.847Z,101323.56
2023-02-22T07:22:28.373Z,101331.53
2023-02-22T07:25:30.373Z,101322.81
2023-02-22T07:28:33.202Z,101326.91
2023-02-22T07:31:36.793Z,101325.56
2023-02-22T07:34:38.081Z,101325.50
2023-02-22T07:37:41.035Z,101321.47
2023-02-22T07:40:44.055Z,101335.50
2023-02-22T07:43:45.473Z,101331.94
2023-02-22T07:46:48.682Z,101335.50
2023-02-22T07:49:49.959Z,101335.06
2023-02-22T07:52:54.728Z,101336.53
2023-02-22T07:55:56.979Z,101336.06
2023-02-22T07:58:59.519Z,101333.47
2023-02-22T08:02:00.784Z,101337.19
2023-02-22T08:05:03.325Z,101339.22
2023-02-22T08:08:05.909Z,101342.34
2023-02-22T08:11:09.392Z,101340.84
2023-02-22T08:14:10.753Z,101338.22
2023-02-22T08:17:12.102Z,101332.28
2023-02-22T08:20:13.595Z,101341.25
2023-02-22T08:23:17.408Z,101335.56
2023-02-22T08:26:20.048Z,101327.47
2023-02-22T08:29:24.247Z,101330.97
2023-02-22T08:32:25.774Z,101333.38
2023-02-22T08:35:28.652Z,101332.34
2023-02-22T08:38:31.133Z,101326.97
2023-02-22T08:41:34.308Z,101329.41
2023-02-22T08:44:37.004Z,101322.75
2023-02-22T08:47:38.341Z,101327.03
2023-02-22T08:50:42.310Z,101329.19
2023-02-22T08:53:43.846Z,101333.72
2023-02-22T08:56:47.033Z,101329.44
2023-02-22T08:59:48.520Z,101332.09
2023-02-22T09:02:50.945Z,101334.22
2023-02-22T09:05:52.243Z,101335.19
2023-02-22T09:08:53.794Z,101327.28
2023-02-22T09:11:55.710Z,101330.13
2023-02-22T09:14:58.294Z,101333.94
2023-02-22T09:18:00.259Z,101334.53
2023-02-22T09:24:24.111Z,101330.47
2023-02-22T09:27:27.498Z,101335.38
2023-02-22T09:30:33.372Z,101327.28
2023-02-22T09:33:34.890Z,101329.06
2023-02-22T09:36:40.248Z,101333.94
2023-02-22T09:43:15.979Z,101317.50
2023-02-22T09:46:33.847Z,101317.94
2023-02-22T09:49:40.693Z,101319.84
2023-02-22T09:52:53.278Z,101315.66
2023-02-22T09:56:00.383Z,101315.16
2023-02-22T09:59:06.452Z,101315.38
2023-02-22T10:02:25.046Z,101304.50
2023-02-22T10:05:32.921Z,101305.84
2023-02-22T10:08:35.827Z,101315.50
2023-02-22T10:11:57.872Z,101296.41
2023-02-22T10:15:38.298Z,101300.91
2023-02-22T10:19:14.459Z,101291.00
2023-02-22T10:22:37.882Z,101296.13
2023-02-22T10:25:41.732Z,101294.66
2023-02-22T10:29:01.948Z,101296.31
2023-02-22T10:32:05.296Z,101304.59
2023-02-22T10:35:17.884Z,101303.31
2023-02-22T10:38:23.942Z,101300.38
2023-02-22T10:41:28.986Z,101295.72
2023-02-22T10:44:30.441Z,101292.88
2023-02-22T10:47:33.784Z,101292.81
2023-02-22T10:50:40.097Z,101283.47
2023-02-22T10:53:41.513Z,101294.38
2023-02-22T10:56:47.805Z,101284.91
2023-02-22T10:59:51.277Z,101286.88
2023-02-22T11:02:55.615Z,101284.94
2023-02-22T11:06:22.312Z,101281.47
2023-02-22T11:09:23.750Z,101284.75
2023-02-22T11:12:31.241Z,101283.44
2023-02-22T11:15:34.042Z,101273.13
2023-02-22T11:18:36.156Z,101281.63
2023-02-22T11:21:40.433Z,101279.38
2023-02-22T11:24:49.201Z,101282.56
2023-02-22T11:27:52.306Z,101276.03
2023-02-22T11:30:56.001Z,101273.69
2023-02-22T11:34:00.636Z,101272.09
2023-02-22T11:37:29.438Z,101265.38
2023-02-22T11:40:30.758Z,101262.97
2023-02-22T11:43:33.332Z,101258.84
2023-02-22T11:46:36.675Z,101254.94
2023-02-22T11:53:30.271Z,101246.44
2023-02-22T11:56:38.338Z,101242.59
2023-02-22T11:59:48.539Z,101246.09
2023-02-22T12:03:10.785Z,101242.41
2023-02-22T12:06:26.930Z,101230.59
2023-02-22T12:09:38.955Z,101236.22
2023-02-22T12:12:50.732Z,101229.53
2023-02-22T12:16:06.154Z,101233.66
2023-02-22T12:19:15.829Z,101225.72
2023-02-22T12:22:25.968Z,101223.22
2023-02-22T12:25:30.985Z,101224.22
2023-02-22T12:28:39.355Z,101225.41
2023-02-22T12:31:45.607Z,101223.47
2023-02-22T12:34:54.756Z,101227.72
2023-02-22T12:38:05.126Z,101220.56
2023-02-22T12:41:14.338Z,101225.16
2023-02-22T12:44:23.028Z,101215.41
2023-02-22T12:47:34.098Z,101227.66
2023-02-22T12:50:37.000Z,101225.31
2023-02-22T12:53:45.752Z,101219.41
2023-02-22T12:56:52.876Z,101222.75
2023-02-22T12:59:59.052Z,101217.50
2023-02-22T13:03:05.559Z,101217.50
2023-02-22T13:06:33.011Z,101224.31
2023-02-22T13:09:59.782Z,101220.81
2023-02-22T13:13:14.416Z,101220.38
2023-02-22T13:16:28.849Z,101213.41
2023-02-22T13:19:39.726Z,101204.09
2023-02-22T13:22:48.605Z,101208.31
2023-02-22T13:25:57.361Z,101204.09
2023-02-22T13:29:06.407Z,101202.09
2023-02-22T13:32:28.040Z,101200.59
2023-02-22T13:35:41.715Z,101191.44
2023-02-22T13:39:37.879Z,101189.13
2023-02-22T13:43:10.177Z,101201.09
2023-02-22T13:46:34.064Z,101190.38
2023-02-22T13:53:46.715Z,101194.25
2023-02-22T13:56:51.720Z,101191.63
2023-02-22T14:00:20.349Z,101193.19
2023-02-22T14:03:41.499Z,101192.03
2023-02-22T14:06:43.171Z,101180.88
2023-02-22T14:09:50.006Z,101189.03
2023-02-22T14:12:51.400Z,101187.63
2023-02-22T14:16:19.438Z,101183.47
2023-02-22T14:19:24.290Z,101183.53
2023-02-22T14:22:29.164Z,101180.13
2023-02-22T14:25:35.691Z,101175.47
2023-02-22T14:28:50.963Z,101171.03
2023-02-22T14:32:01.970Z,101174.97
2023-02-22T14:35:06.412Z,101162.75
2023-02-22T14:38:17.690Z,101160.50
2023-02-22T14:41:22.119Z,101164.75
2023-02-22T14:44:27.483Z,101159.22
2023-02-22T14:47:35.874Z,101160.00
2023-02-22T14:50:48.020Z,101153.16
2023-02-22T14:57:24.896Z,101153.75
2023-02-22T15:00:32.048Z,101157.09
2023-02-22T15:03:36.488Z,101149.34
2023-02-22T15:06:37.986Z,101155.72
2023-02-22T15:09:39.358Z,101156.22
2023-02-22T15:12:41.861Z,101140.03
2023-02-22T15:15:44.828Z,101143.59
2023-02-22T15:18:50.996Z,101146.09
2023-02-22T15:21:53.972Z,101139.59
2023-02-22T15:24:58.824Z,101146.00
2023-02-22T15:28:04.015Z,101142.75
2023-02-22T15:31:24.405Z,101144.94
2023-02-22T15:34:30.341Z,101135.09
2023-02-22T15:37:31.826Z,101134.84
2023-02-22T15:40:35.060Z,101137.91
2023-02-22T15:43:37.757Z,101141.16
2023-02-22T15:46:40.848Z,101134.50
2023-02-22T15:49:44.578Z,101133.50
2023-02-22T15:52:52.826Z,101138.25
2023-02-22T15:55:57.776Z,101133.69
2023-02-22T15:59:04.328Z,101120.28
2023-02-22T16:02:05.721Z,101112.94
2023-02-22T16:05:11.543Z,101115.66
2023-02-22T16:08:17.211Z,101109.88
2023-02-22T16:11:30.296Z,101111.91
2023-02-22T16:14:43.212Z,101116.19
2023-02-22T16:18:01.087Z,101118.88
2023-02-22T16:21:10.888Z,101118.78
2023-02-22T16:24:26.909Z,101115.19
2023-02-22T16:27:28.204Z,101114.63
2023-02-22T16:30:31.940Z,101114.03
2023-02-22T16:33:33.270Z,101111.88
2023-02-22T16:36:41.455Z,101119.50
2023-02-22T16:39:45.397Z,101126.44
2023-02-22T16:42:46.694Z,101121.78
2023-02-22T16:45:48.175Z,101131.56
2023-02-22T16:55:31.208Z,101134.66
2023-02-22T16:58:36.890Z,101128.47
2023-02-22T17:01:39.574Z,101131.09
2023-02-22T17:04:43.136Z,101127.88
2023-02-22T17:07:45.082Z,101122.53
2023-02-22T17:10:46.545Z,101126.94
2023-02-22T17:13:52.291Z,101120.41
2023-02-22T17:16:53.578Z,101125.63
2023-02-22T17:19:55.153Z,101123.38
2023-02-22T17:22:58.918Z,101134.06
2023-02-22T17:26:02.737Z,101131.09
2023-02-22T17:29:04.030Z,101128.84
2023-02-22T17:32:06.656Z,101120.97
2023-02-22T17:35:08.133Z,101121.34
2023-02-22T17:38:11.302Z,101124.56
2023-02-22T17:41:12.597Z,101132.19
2023-02-22T17:44:13.913Z,101117.31
2023-02-22T17:47:16.478Z,101118.25
2023-02-22T17:50:18.808Z,101120.63
2023-02-22T17:53:23.757Z,101125.84
2023-02-22T17:56:26.345Z,101122.66
2023-02-22T17:59:28.247Z,101111.09
2023-02-22T18:02:30.840Z,101117.66
2023-02-22T18:05:33.960Z,101120.13
2023-02-22T18:08:39.524Z,101112.16
2023-02-22T18:11:42.089Z,101119.31
2023-02-22T18:14:44.618Z,101114.28
2023-02-22T18:17:46.802Z,101111.31
2023-02-22T18:20:51.905Z,101112.59
2023-02-22T18:23:54.139Z,101113.34
2023-02-22T18:26:57.027Z,101120.38
2023-02-22T18:29:58.462Z,101112.72
2023-02-22T18:33:00.999Z,101120.44
2023-02-22T18:36:02.298Z,101112.47
2023-02-22T18:39:12.055Z,101111.06
2023-02-22T18:42:14.609Z,101111.75
2023-02-22T18:52:00.468Z,101110.31
2023-02-22T18:55:02.441Z,101106.50
2023-02-22T18:58:05.531Z,101106.16
2023-02-22T19:01:06.938Z,101110.06
2023-02-22T19:04:09.341Z,101104.13
2023-02-22T19:07:16.866Z,101105.41
2023-02-22T19:10:21.586Z,101108.50
2023-02-22T19:13:23.040Z,101099.81
2023-02-22T19:16:26.701Z,101093.59
2023-02-22T19:19:30.702Z,101102.88
2023-02-22T19:22:33.535Z,101103.81
2023-02-22T19:25:39.592Z,101100.97
2023-02-22T19:28:40.920Z,101107.50
2023-02-22T19:31:42.944Z,101104.72
2023-02-22T19:34:44.580Z,101103.53
2023-02-22T19:37:48.563Z,101102.22
2023-02-22T19:40:50.510Z,101105.66
2023-02-22T19:43:54.221Z,101098.16
2023-02-22T19:46:55.505Z,101105.91
2023-02-22T19:49:59.195Z,101105.63
2023-02-22T19:53:02.896Z,101101.13
2023-02-22T19:56:08.798Z,101099.09
2023-02-22T19:59:14.110Z,101098.00
2023-02-22T20:02:15.409Z,101102.03
2023-02-22T20:05:18.137Z,101094.91
2023-02-22T20:08:20.336Z,101100.16
2023-02-22T20:11:23.278Z,101102.28
2023-02-22T20:14:28.871Z,101095.66
2023-02-22T20:17:31.434Z,101096.03
2023-02-22T20:20:32.817Z,101104.22
2023-02-22T20:23:35.412Z,101105.06
2023-02-22T20:26:38.899Z,101108.59
2023-02-22T20:29:41.801Z,101095.13
2023-02-22T20:32:43.514Z,101105.75
2023-02-22T20:35:47.126Z,101096.66
2023-02-22T20:38:52.514Z,101101.09
2023-02-22T20:41:54.519Z,101098.84
2023-02-22T20:45:00.960Z,101106.81
2023-02-22T20:48:02.274Z,101098.91
2023-02-22T20:51:09.407Z,101103.63
2023-02-22T20:54:11.591Z,101091.66
2023-02-22T20:57:14.761Z,101083.25
2023-02-22T21:00:17.278Z,101094.53
2023-02-22T21:03:19.804Z,101088.47
2023-02-22T21:06:22.115Z,101089.72
2023-02-22T21:12:48.287Z,101098.31
2023-02-22T21:15:51.861Z,101084.00
2023-02-22T21:18:55.695Z,101098.59
2023-02-22T21:21:58.583Z,101090.75
2023-02-22T21:25:01.471Z,101092.47
2023-02-22T21:28:04.125Z,101089.84
2023-02-22T21:31:07.758Z,101092.56
2023-02-22T21:34:11.642Z,101091.19
2023-02-22T21:37:18.590Z,101094.13
2023-02-22T21:40:21.581Z,101088.06
2023-02-22T21:43:25.650Z,101075.84
2023-02-22T21:53:13.150Z,101068.94
2023-02-22T21:56:19.400Z,101064.41
2023-02-22T21:59:22.937Z,101062.06
2023-02-22T22:02:25.544Z,101064.28
2023-02-22T22:05:33.006Z,101054.41
2023-02-22T22:08:40.464Z,101062.81
2023-02-22T22:11:41.863Z,101064.97
2023-02-22T22:14:45.310Z,101045.47
2023-02-22T22:17:46.873Z,101053.75
2023-02-22T22:20:52.336Z,101049.28
2023-02-22T22:23:57.231Z,101055.72
2023-02-22T22:27:02.838Z,101049.97
2023-02-22T22:30:08.393Z,101055.44
2023-02-22T22:33:10.517Z,101049.81
2023-02-22T22:36:14.836Z,101046.72
2023-02-22T22:39:20.102Z,101044.59
2023-02-22T22:45:47.341Z,101044.22
2023-02-22T22:48:49.886Z,101034.56
2023-02-22T22:51:53.142Z,101038.91
2023-02-22T22:54:54.411Z,101031.09
2023-02-22T22:57:56.972Z,101028.06
2023-02-22T23:01:01.682Z,101025.13
2023-02-22T23:04:05.712Z,101020.13
2023-02-22T23:07:08.330Z,101024.56
2023-02-22T23:10:13.163Z,101021.75
2023-02-22T23:13:15.095Z,101018.97
2023-02-22T23:16:20.296Z,101022.06
2023-02-22T23:22:46.540Z,101022.16
2023-02-22T23:25:51.290Z,101009.41
2023-02-22T23:28:56.495Z,101009.63
2023-02-22T23:31:58.510Z,101009.28
2023-02-22T23:35:02.262Z,101014.63
2023-02-22T23:38:09.477Z,101012.19
2023-02-22T23:41:17.789Z,101021.31
2023-02-22T23:44:20.798Z,101018.34
2023-02-22T23:47:24.104Z,101022.25
2023-02-22T23:50:29.482Z,101016.13
2023-02-22T23:53:31.810Z,101014.69
2023-02-22T23:56:35.905Z,101013.25
2023-02-22T23:59:40.826Z,101017.03
